Kalar Kahar Weather



Kalar Kahar's Current Weather

Temprature 22.24o clear sky

clear sky

Rain: 0 %

Min Temprature22.24o
Max Temprature22.24o
Humidity22
Wind Speed0.53 m/h
Sun Rise06:23:31
Sun Set17:22:13
Current Time: 28-Oct-2020 07:51:46
Lat/Lon: 32.78, 72.7




Kalar Kahar's Geo Location



Kalar Kahar's Weather Forecast

Time Overall Temp Min Temp Max Temp Humidity Wind Speed Rain
28-Oct-2020 (Wed)
08:00:00 clear sky 18.130 18.130 22.240 28 0.53 m/h 0 %
11:00:00 clear sky 24.090 24.090 26.810 19 2.31 m/h 0 %
14:00:00 clear sky 27.070 27.070 27.950 16 3.15 m/h 0 %
17:00:00 clear sky 23.030 23.030 23.100 20 2.06 m/h 0 %
20:00:00 clear sky 18.030 18.030 18.030 27 0.31 m/h 0 %
23:00:00 clear sky 17.060 17.060 17.060 29 1.18 m/h 0 %
29-Oct-2020 (Thu)
02:00:00 clear sky 15.590 15.590 15.590 31 1.2 m/h 0 %
05:00:00 clear sky 14.670 14.670 14.670 33 1.31 m/h 0 %
08:00:00 clear sky 21.120 21.120 21.120 23 1.25 m/h 0 %
11:00:00 clear sky 26.370 26.370 26.370 16 2.3 m/h 0 %
14:00:00 clear sky 27.940 27.940 27.940 15 2.42 m/h 0 %
17:00:00 clear sky 22.680 22.680 22.680 21 1.4 m/h 0 %
20:00:00 clear sky 18.140 18.140 18.140 28 1.63 m/h 0 %
23:00:00 clear sky 16.990 16.990 16.990 30 1.96 m/h 0 %
30-Oct-2020 (Fri)
02:00:00 clear sky 15.800 15.800 15.800 32 1.9 m/h 0 %
05:00:00 clear sky 15.300 15.300 15.300 33 2.3 m/h 0 %
08:00:00 clear sky 19.660 19.660 19.660 26 3.11 m/h 0 %
11:00:00 clear sky 25.700 25.700 25.700 17 4.64 m/h 0 %
14:00:00 clear sky 27.980 27.980 27.980 14 4.44 m/h 0 %
17:00:00 clear sky 23.130 23.130 23.130 19 3.4 m/h 0 %
20:00:00 clear sky 18.060 18.060 18.060 25 2.59 m/h 0 %
23:00:00 clear sky 16.370 16.370 16.370 26 2.32 m/h 0 %
31-Oct-2020 (Sat)
02:00:00 clear sky 16.310 16.310 16.310 26 3 m/h 0 %
05:00:00 clear sky 15.510 15.510 15.510 28 3.09 m/h 0 %
08:00:00 clear sky 19.950 19.950 19.950 23 3.45 m/h 0 %
11:00:00 clear sky 26.030 26.030 26.030 15 5.39 m/h 0 %
14:00:00 clear sky 27.760 27.760 27.760 13 5.75 m/h 0 %
17:00:00 clear sky 22.430 22.430 22.430 18 3.22 m/h 0 %
20:00:00 clear sky 17.830 17.830 17.830 22 2.68 m/h 0 %
23:00:00 clear sky 16.700 16.700 16.700 23 2.62 m/h 0 %
01-Nov-2020 (Sun)
02:00:00 clear sky 16.080 16.080 16.080 24 2.47 m/h 0 %
05:00:00 clear sky 15.550 15.550 15.550 25 2.6 m/h 0 %
08:00:00 clear sky 19.800 19.800 19.800 21 2.47 m/h 0 %
11:00:00 clear sky 25.760 25.760 25.760 14 4.75 m/h 0 %
14:00:00 clear sky 27.970 27.970 27.970 13 5.43 m/h 0 %
17:00:00 clear sky 22.820 22.820 22.820 18 3.12 m/h 0 %
20:00:00 clear sky 18.010 18.010 18.010 22 1.65 m/h 0 %
23:00:00 clear sky 16.310 16.310 16.310 24 1.12 m/h 0 %
02-Nov-2020 (Mon)
02:00:00 clear sky 15.690 15.690 15.690 24 1.32 m/h 0 %
05:00:00 clear sky 13.680 13.680 13.680 29 1.07 m/h 0 %

Famous Cities (60)